Terminal Aerodrome Forecast
Issued by NWS

Home | Current Version | Previous Version | Text Only | Print | Product List | Glossary On
Versions: 1 2 3 4 5 6 7 8 9 10 11 12 13 14 15 16
000
FTUS43 KLSX 010520
TAFUIN
TAF
KUIN 010520Z 0106/0206 VRB03KT 6SM BR SCT040 BKN150
      TEMPO 0109/0113 3SM BR
     FM011400 20005KT P6SM OVC060
     FM012100 14006KT P6SM VCTS BKN040CB
     FM020300 09006KT P6SM BKN060=

USA.gov is the U.S. government's official web portal to all federal, state and local government web resources and services.